Terminal Aerodrome Forecast
Issued by NWS Greer, SC

Home | Current Version | Previous Version | Text Only | Print | Product List | Glossary On
Versions: 1 2 3 4 5 6 7 8 9 10 11 12 13 14 15 16 17 18
000
FTUS42 KGSP 271120
TAFAVL
TAF
KAVL 271120Z 2712/2812 35003KT P6SM SCT250
     FM271700 15007KT P6SM SCT045
      TEMPO 2720/2724 4SM -TSRA BKN035CB BKN060
     FM280400 09003KT P6SM SCT020
     FM280600 00000KT 6SM BR SCT080
     FM280800 00000KT 4SM BR SCT060=

USA.gov is the U.S. government's official web portal to all federal, state and local government web resources and services.